PHENX48 YPED-YPEA
Flight info
| Callsign | PHENX48 |
|---|---|
| Flight time | N/A |
| Altitude | 38000 |
| Route | DOLVU W142 AD A585 AREPA H54 KAMBI Q32 ALBIX/N0473F400 Q32 NODEV Q10 MALUP Q158 PH W839 PEA |
| Aircraft | A339/H-SADE1E2E3GHIJ3J5M1P2RWXY/LB2D1 |
Departure
| Time | 2026-04-16 00:37 |
|---|---|
| Airport | RAAF Base Edinburgh (YPED) |
Arrival
| Time | N/A |
|---|---|
| Airport | RAAF Base Pearce (YPEA) |
| Time | Latitude | Longitude | Altitude | Speed | Heading |
|---|---|---|---|---|---|
| 2026-04-16 00:31 | -34.71415 | 138.62177 | 88 ft | 0 kts | 41° |
| 2026-04-16 00:32 | -34.71408 | 138.62184 | 88 ft | 2 kts | 41° |
| 2026-04-16 00:33 | -34.71386 | 138.62189 | 88 ft | 5 kts | 334° |
| 2026-04-16 00:33 | -34.71366 | 138.62161 | 88 ft | 0 kts | 309° |
| 2026-04-16 00:33 | -34.71365 | 138.62160 | 88 ft | 1 kts | 309° |
| 2026-04-16 00:33 | -34.71347 | 138.62094 | 87 ft | 10 kts | 257° |
| 2026-04-16 00:34 | -34.71363 | 138.62051 | 86 ft | 0 kts | 238° |
| 2026-04-16 00:34 | -34.71406 | 138.61997 | 85 ft | 16 kts | 217° |
| 2026-04-16 00:34 | -34.71508 | 138.61906 | 84 ft | 18 kts | 220° |
| 2026-04-16 00:34 | -34.71600 | 138.61803 | 85 ft | 18 kts | 224° |
| 2026-04-16 00:35 | -34.71694 | 138.61693 | 84 ft | 18 kts | 223° |
| 2026-04-16 00:35 | -34.71754 | 138.61559 | 84 ft | 18 kts | 270° |
| 2026-04-16 00:35 | -34.71736 | 138.61403 | 83 ft | 18 kts | 294° |
| 2026-04-16 00:35 | -34.71664 | 138.61357 | 83 ft | 0 kts | 7° |
| 2026-04-16 00:36 | -34.71529 | 138.61380 | 83 ft | 53 kts | 8° |
| 2026-04-16 00:36 | -34.70939 | 138.61485 | 82 ft | 116 kts | 8° |
| 2026-04-16 00:36 | -34.69963 | 138.61661 | 92 ft | 165 kts | 7° |
| 2026-04-16 00:36 | -34.68734 | 138.61900 | 430 ft | 183 kts | 8° |
| 2026-04-16 00:37 | -34.67475 | 138.62068 | 1043 ft | 187 kts | 354° |
| 2026-04-16 00:37 | -34.66233 | 138.61740 | 1860 ft | 180 kts | 345° |
| 2026-04-16 00:37 | -34.65006 | 138.61388 | 2431 ft | 187 kts | 347° |
| 2026-04-16 00:37 | -34.63673 | 138.61041 | 2839 ft | 204 kts | 347° |
| 2026-04-16 00:38 | -34.62231 | 138.60673 | 3220 ft | 222 kts | 347° |
| 2026-04-16 00:38 | -34.60636 | 138.60265 | 3642 ft | 241 kts | 346° |
| 2026-04-16 00:38 | -34.58931 | 138.59891 | 4064 ft | 259 kts | 357° |
| 2026-04-16 00:38 | -34.57157 | 138.60463 | 4611 ft | 274 kts | 31° |
| 2026-04-16 00:39 | -34.55576 | 138.61736 | 5410 ft | 275 kts | 25° |
| 2026-04-16 00:39 | -34.53738 | 138.62205 | 6100 ft | 275 kts | 352° |
| 2026-04-16 00:39 | -34.51996 | 138.61375 | 6776 ft | 275 kts | 319° |
| 2026-04-16 00:39 | -34.50905 | 138.59482 | 7427 ft | 277 kts | 286° |
| 2026-04-16 00:40 | -34.50837 | 138.57165 | 8088 ft | 280 kts | 258° |
| 2026-04-16 00:40 | -34.51429 | 138.54947 | 8763 ft | 283 kts | 250° |
| 2026-04-16 00:40 | -34.51993 | 138.52840 | 9379 ft | 286 kts | 255° |
| 2026-04-16 00:40 | -34.52459 | 138.50501 | 10050 ft | 287 kts | 259° |
| 2026-04-16 00:41 | -34.52811 | 138.48106 | 10630 ft | 292 kts | 261° |
| 2026-04-16 00:41 | -34.53098 | 138.45610 | 10917 ft | 306 kts | 263° |
| 2026-04-16 00:41 | -34.53345 | 138.43018 | 11191 ft | 321 kts | 264° |
| 2026-04-16 00:41 | -34.53579 | 138.40256 | 11480 ft | 337 kts | 264° |
| 2026-04-16 00:42 | -34.53805 | 138.37373 | 11767 ft | 352 kts | 265° |
| 2026-04-16 00:42 | -34.54030 | 138.34366 | 12082 ft | 366 kts | 265° |
| 2026-04-16 00:42 | -34.54256 | 138.31238 | 12674 ft | 372 kts | 266° |
| 2026-04-16 00:42 | -34.54479 | 138.28131 | 13365 ft | 373 kts | 266° |
| 2026-04-16 00:43 | -34.54702 | 138.24979 | 14017 ft | 377 kts | 266° |
| 2026-04-16 00:43 | -34.54926 | 138.21802 | 14652 ft | 380 kts | 266° |
| 2026-04-16 00:43 | -34.55151 | 138.18596 | 15288 ft | 384 kts | 266° |
| 2026-04-16 00:43 | -34.55375 | 138.15387 | 15947 ft | 387 kts | 266° |
| 2026-04-16 00:44 | -34.55603 | 138.12120 | 16631 ft | 389 kts | 266° |
| 2026-04-16 00:44 | -34.55831 | 138.08827 | 17311 ft | 392 kts | 266° |
| 2026-04-16 00:44 | -34.56057 | 138.05563 | 17979 ft | 394 kts | 266° |
| 2026-04-16 00:44 | -34.56285 | 138.02239 | 18647 ft | 397 kts | 266° |
| 2026-04-16 00:45 | -34.56511 | 137.98924 | 19308 ft | 399 kts | 266° |
| 2026-04-16 00:45 | -34.56738 | 137.95579 | 19959 ft | 400 kts | 266° |
| 2026-04-16 00:45 | -34.56965 | 137.92232 | 20560 ft | 402 kts | 266° |
| 2026-04-16 00:45 | -34.57146 | 137.88846 | 21117 ft | 404 kts | 270° |
| 2026-04-16 00:46 | -34.57099 | 137.85431 | 21675 ft | 406 kts | 274° |
| 2026-04-16 00:46 | -34.56817 | 137.82040 | 22217 ft | 408 kts | 278° |
| 2026-04-16 00:46 | -34.56323 | 137.78665 | 22740 ft | 410 kts | 281° |
| 2026-04-16 00:46 | -34.55772 | 137.75270 | 23243 ft | 411 kts | 281° |
| 2026-04-16 00:47 | -34.55212 | 137.71878 | 23730 ft | 413 kts | 281° |
| 2026-04-16 00:47 | -34.54647 | 137.68463 | 24207 ft | 415 kts | 281° |
| 2026-04-16 00:47 | -34.54077 | 137.65027 | 24698 ft | 416 kts | 281° |
| 2026-04-16 00:47 | -34.53505 | 137.61580 | 25196 ft | 418 kts | 281° |
| 2026-04-16 00:48 | -34.52932 | 137.58134 | 25662 ft | 421 kts | 281° |
| 2026-04-16 00:48 | -34.52357 | 137.54680 | 26119 ft | 423 kts | 281° |
| 2026-04-16 00:48 | -34.51772 | 137.51169 | 26569 ft | 425 kts | 281° |
| 2026-04-16 00:48 | -34.51181 | 137.47635 | 27005 ft | 428 kts | 281° |
| 2026-04-16 00:49 | -34.50596 | 137.44136 | 27419 ft | 430 kts | 281° |
| 2026-04-16 00:50 | -34.46346 | 137.18910 | 30527 ft | 435 kts | 282° |
| 2026-04-16 00:51 | -34.45746 | 137.15375 | 31024 ft | 433 kts | 282° |
| 2026-04-16 00:51 | -34.45136 | 137.11786 | 31511 ft | 432 kts | 282° |
| 2026-04-16 00:51 | -34.44537 | 137.08267 | 31980 ft | 430 kts | 282° |
| 2026-04-16 00:51 | -34.43931 | 137.04713 | 32441 ft | 428 kts | 282° |
| 2026-04-16 00:52 | -34.43332 | 137.01201 | 32920 ft | 426 kts | 282° |
| 2026-04-16 00:52 | -34.42740 | 136.97745 | 33397 ft | 423 kts | 282° |
| 2026-04-16 00:52 | -34.42144 | 136.94269 | 33867 ft | 420 kts | 282° |
| 2026-04-16 00:52 | -34.41553 | 136.90828 | 34322 ft | 417 kts | 282° |
| 2026-04-16 00:53 | -34.40971 | 136.87447 | 34760 ft | 415 kts | 282° |
| 2026-04-16 00:53 | -34.40385 | 136.84052 | 35192 ft | 412 kts | 282° |
| 2026-04-16 00:53 | -34.39802 | 136.80675 | 35597 ft | 410 kts | 282° |
| 2026-04-16 00:53 | -34.39220 | 136.77312 | 35927 ft | 407 kts | 283° |
| 2026-04-16 00:54 | -34.38641 | 136.73972 | 36233 ft | 405 kts | 283° |
| 2026-04-16 00:54 | -34.38062 | 136.70639 | 36499 ft | 404 kts | 283° |
| 2026-04-16 00:54 | -34.37491 | 136.67355 | 36719 ft | 404 kts | 283° |
| 2026-04-16 00:54 | -34.36912 | 136.64033 | 36922 ft | 404 kts | 283° |
| 2026-04-16 00:55 | -34.36335 | 136.60727 | 37110 ft | 404 kts | 283° |
| 2026-04-16 00:55 | -34.35750 | 136.57384 | 37294 ft | 404 kts | 283° |
| 2026-04-16 00:55 | -34.35165 | 136.54063 | 37470 ft | 405 kts | 283° |
| 2026-04-16 00:55 | -34.34587 | 136.50769 | 37644 ft | 405 kts | 283° |
| 2026-04-16 00:56 | -34.34007 | 136.47430 | 37814 ft | 405 kts | 283° |
| 2026-04-16 00:56 | -34.33428 | 136.44127 | 37975 ft | 405 kts | 283° |
| 2026-04-16 00:56 | -34.32847 | 136.40816 | 38104 ft | 405 kts | 283° |
| 2026-04-16 00:56 | -34.32261 | 136.37491 | 38124 ft | 405 kts | 283° |
| 2026-04-16 00:57 | -34.30493 | 136.27519 | 38137 ft | 403 kts | 283° |
| 2026-04-16 00:58 | -34.29314 | 136.20911 | 38138 ft | 403 kts | 283° |
| 2026-04-16 00:58 | -34.28144 | 136.14337 | 38138 ft | 403 kts | 283° |
| 2026-04-16 00:59 | -34.26963 | 136.07695 | 38140 ft | 403 kts | 284° |
| 2026-04-16 00:59 | -34.25772 | 136.01114 | 38141 ft | 403 kts | 284° |
| 2026-04-16 01:00 | -34.24580 | 135.94527 | 38144 ft | 403 kts | 284° |
| 2026-04-16 01:00 | -34.23382 | 135.87923 | 38143 ft | 403 kts | 283° |
| 2026-04-16 01:01 | -34.22189 | 135.81326 | 38144 ft | 403 kts | 283° |
| 2026-04-16 01:01 | -34.20995 | 135.74744 | 38144 ft | 403 kts | 284° |
| 2026-04-16 01:02 | -34.19793 | 135.68155 | 38143 ft | 403 kts | 284° |
| 2026-04-16 01:02 | -34.18580 | 135.61560 | 38143 ft | 403 kts | 284° |
| 2026-04-16 01:03 | -34.17374 | 135.54980 | 38144 ft | 403 kts | 284° |
| 2026-04-16 01:03 | -34.16161 | 135.48421 | 38144 ft | 403 kts | 284° |
| 2026-04-16 01:04 | -34.14930 | 135.41795 | 38144 ft | 404 kts | 283° |
| 2026-04-16 01:04 | -34.13864 | 135.35196 | 38144 ft | 404 kts | 280° |
| 2026-04-16 01:05 | -34.13245 | 135.28420 | 38145 ft | 406 kts | 276° |
| 2026-04-16 01:05 | -34.12893 | 135.21635 | 38143 ft | 406 kts | 276° |
| 2026-04-16 01:06 | -34.12540 | 135.14847 | 38143 ft | 407 kts | 276° |
| 2026-04-16 01:06 | -34.12188 | 135.08044 | 38143 ft | 407 kts | 276° |
| 2026-04-16 01:07 | -34.11834 | 135.01244 | 38143 ft | 407 kts | 276° |
| 2026-04-16 01:07 | -34.11478 | 134.94444 | 38142 ft | 407 kts | 276° |
| 2026-04-16 01:08 | -34.11118 | 134.87651 | 38141 ft | 408 kts | 276° |
| 2026-04-16 01:08 | -34.10754 | 134.80855 | 38141 ft | 408 kts | 276° |
| 2026-04-16 01:09 | -34.10388 | 134.74057 | 38139 ft | 408 kts | 276° |
| 2026-04-16 01:09 | -34.10017 | 134.67252 | 38138 ft | 408 kts | 276° |
| 2026-04-16 01:10 | -34.09641 | 134.60434 | 38137 ft | 408 kts | 276° |
| 2026-04-16 01:10 | -34.09261 | 134.53609 | 38135 ft | 409 kts | 276° |
| 2026-04-16 01:11 | -34.08879 | 134.46794 | 38134 ft | 409 kts | 276° |
| 2026-04-16 01:11 | -34.08491 | 134.39941 | 38133 ft | 409 kts | 276° |
| 2026-04-16 01:12 | -34.08099 | 134.33122 | 38135 ft | 409 kts | 277° |
| 2026-04-16 01:12 | -34.07704 | 134.26298 | 38134 ft | 410 kts | 277° |
| 2026-04-16 01:13 | -34.07305 | 134.19470 | 38132 ft | 410 kts | 277° |
| 2026-04-16 01:13 | -34.06903 | 134.12631 | 38132 ft | 410 kts | 277° |